createdAt,value
2022-08-31T00:00:40.568Z,85.14
2022-08-31T00:01:40.628Z,85.25
2022-08-31T00:02:40.515Z,85.21
2022-08-31T00:03:40.486Z,85.41
2022-08-31T00:04:40.678Z,85.35
2022-08-31T00:05:40.576Z,85.55
2022-08-31T00:06:40.458Z,85.66
2022-08-31T00:07:40.527Z,85.86
2022-08-31T00:08:40.418Z,85.96
2022-08-31T00:09:40.448Z,86.06
2022-08-31T00:10:40.610Z,86.06
2022-08-31T00:11:40.427Z,86.21
2022-08-31T00:12:40.372Z,86.37
2022-08-31T00:13:40.397Z,86.37
2022-08-31T00:14:40.348Z,86.57
2022-08-31T00:15:40.441Z,86.57
2022-08-31T00:16:40.426Z,86.47
2022-08-31T00:17:40.404Z,86.57
2022-08-31T00:18:40.289Z,86.47
2022-08-31T00:19:40.320Z,86.47
2022-08-31T00:20:40.389Z,86.27
2022-08-31T00:21:40.240Z,86.47
2022-08-31T00:22:40.236Z,86.37
2022-08-31T00:23:40.224Z,86.27
2022-08-31T00:24:40.254Z,86.30
2022-08-31T00:25:40.323Z,86.30
2022-08-31T00:26:40.185Z,86.30
2022-08-31T00:27:40.166Z,86.51
2022-08-31T00:28:40.180Z,86.41
2022-08-31T00:29:40.137Z,86.21
2022-08-31T00:30:40.162Z,86.00
2022-08-31T00:31:40.220Z,85.80
2022-08-31T00:32:40.177Z,85.69
2022-08-31T00:33:40.090Z,85.60
2022-08-31T00:34:40.073Z,85.39
2022-08-31T00:35:40.125Z,85.28
2022-08-31T00:36:40.062Z,85.39
2022-08-31T00:37:40.036Z,85.49
2022-08-31T00:38:40.057Z,85.49
2022-08-31T00:39:40.048Z,85.39
2022-08-31T00:40:44.687Z,85.39
2022-08-31T00:41:41.037Z,85.39
2022-08-31T00:42:39.987Z,85.69
2022-08-31T00:43:39.965Z,85.90
2022-08-31T00:44:39.947Z,85.90
2022-08-31T00:45:40.016Z,86.00
2022-08-31T00:46:39.949Z,86.00
2022-08-31T00:47:39.904Z,85.80
2022-08-31T00:48:39.904Z,85.80
2022-08-31T00:49:39.901Z,85.69
2022-08-31T00:50:39.902Z,85.49
2022-08-31T00:51:39.938Z,85.39
2022-08-31T00:52:39.847Z,85.49
2022-08-31T00:53:39.852Z,85.74
2022-08-31T00:54:39.825Z,85.84
2022-08-31T00:55:39.813Z,85.74
2022-08-31T00:56:39.848Z,85.74
2022-08-31T00:57:39.779Z,85.74
2022-08-31T00:58:39.798Z,85.74
2022-08-31T00:59:39.762Z,85.74
2022-08-31T01:00:39.872Z,85.74
2022-08-31T01:01:39.757Z,85.74
2022-08-31T01:02:39.822Z,85.74
2022-08-31T01:03:39.703Z,85.84
2022-08-31T01:04:39.735Z,85.84
2022-08-31T01:05:39.681Z,85.84
2022-08-31T01:06:39.669Z,85.94
2022-08-31T01:07:39.706Z,85.94
2022-08-31T01:08:39.653Z,86.04
2022-08-31T01:09:39.619Z,86.15
2022-08-31T01:10:40.629Z,86.24
2022-08-31T01:11:39.593Z,86.29
2022-08-31T01:12:39.592Z,86.29
2022-08-31T01:13:39.573Z,86.29
2022-08-31T01:14:39.656Z,86.39
2022-08-31T01:15:39.558Z,86.39
2022-08-31T01:16:39.713Z,86.39
2022-08-31T01:17:39.550Z,86.18
2022-08-31T01:18:39.496Z,86.29
2022-08-31T01:19:39.479Z,86.39
2022-08-31T01:20:45.746Z,86.39
2022-08-31T01:21:40.502Z,86.39
2022-08-31T01:22:39.454Z,86.29
2022-08-31T01:23:39.458Z,86.18
2022-08-31T01:24:39.461Z,85.98
2022-08-31T01:25:39.505Z,85.98
2022-08-31T01:26:39.540Z,85.98
2022-08-31T01:27:39.409Z,86.08
2022-08-31T01:28:39.386Z,86.39
2022-08-31T01:29:39.359Z,86.49
2022-08-31T01:30:39.359Z,86.49
2022-08-31T01:31:39.431Z,86.49
2022-08-31T01:32:39.342Z,86.59
2022-08-31T01:33:39.622Z,86.59
2022-08-31T01:34:39.316Z,86.49
2022-08-31T01:35:39.312Z,86.39
2022-08-31T01:36:39.313Z,86.53
2022-08-31T01:37:39.289Z,86.53
2022-08-31T01:38:39.298Z,86.53
2022-08-31T01:39:39.340Z,86.43
2022-08-31T01:40:39.343Z,86.33
2022-08-31T01:41:39.209Z,86.33
2022-08-31T01:42:39.287Z,86.33
2022-08-31T01:43:39.176Z,86.22
2022-08-31T01:44:39.167Z,86.33
2022-08-31T01:45:39.204Z,86.43
2022-08-31T01:46:39.281Z,86.43
2022-08-31T01:47:39.117Z,86.53
2022-08-31T01:48:41.591Z,86.53
2022-08-31T01:49:39.090Z,86.43
2022-08-31T01:50:39.515Z,86.36
2022-08-31T01:51:39.068Z,86.47
2022-08-31T01:52:39.079Z,86.43
2022-08-31T01:53:39.083Z,86.43
2022-08-31T01:54:39.069Z,86.43
2022-08-31T01:55:39.117Z,86.33
2022-08-31T01:56:39.013Z,86.36
2022-08-31T01:57:39.059Z,86.36
2022-08-31T01:58:39.058Z,86.47
2022-08-31T01:59:39.037Z,86.67
2022-08-31T02:00:39.185Z,86.88
2022-08-31T02:01:39.143Z,87.12
2022-08-31T02:02:39.003Z,87.23
2022-08-31T02:03:38.913Z,87.32
2022-08-31T02:04:38.926Z,87.32
2022-08-31T02:05:38.899Z,87.43
2022-08-31T02:06:38.947Z,87.38
2022-08-31T02:07:38.941Z,87.29
2022-08-31T02:08:38.858Z,87.08
2022-08-31T02:09:38.851Z,87.23
2022-08-31T02:10:38.878Z,87.23
2022-08-31T02:11:38.836Z,87.23
2022-08-31T02:12:42.719Z,87.23
2022-08-31T02:13:38.803Z,87.12
2022-08-31T02:14:38.795Z,86.98
2022-08-31T02:15:38.797Z,86.98
2022-08-31T02:16:38.871Z,86.98
2022-08-31T02:17:38.874Z,86.98
2022-08-31T02:18:38.724Z,87.18
2022-08-31T02:19:38.757Z,87.18
2022-08-31T02:20:38.763Z,87.08
2022-08-31T02:21:38.682Z,86.91
2022-08-31T02:22:38.701Z,86.91
2022-08-31T02:23:38.649Z,86.91
2022-08-31T02:24:38.684Z,87.02
2022-08-31T02:25:38.724Z,87.23
2022-08-31T02:26:38.643Z,87.23
2022-08-31T02:27:38.609Z,87.23
2022-08-31T02:28:38.606Z,87.23
2022-08-31T02:29:38.625Z,87.12
2022-08-31T02:30:38.609Z,87.12
2022-08-31T02:31:38.678Z,87.12
2022-08-31T02:32:38.535Z,87.12
2022-08-31T02:33:38.550Z,87.12
2022-08-31T02:34:38.516Z,87.23
2022-08-31T02:35:38.518Z,87.53
2022-08-31T02:36:38.490Z,87.53
2022-08-31T02:37:38.466Z,87.43
2022-08-31T02:38:38.460Z,87.53
2022-08-31T02:39:38.482Z,87.63
2022-08-31T02:40:38.561Z,87.53
2022-08-31T02:41:38.510Z,87.53
2022-08-31T02:42:50.844Z,87.32
2022-08-31T02:43:39.439Z,87.12
2022-08-31T02:44:38.419Z,87.23
2022-08-31T02:45:38.369Z,87.43
2022-08-31T02:46:38.474Z,87.63
2022-08-31T02:47:38.347Z,87.63
2022-08-31T02:48:38.327Z,87.53
2022-08-31T02:49:38.359Z,87.47
2022-08-31T02:50:38.339Z,87.57
2022-08-31T02:51:38.335Z,87.77
2022-08-31T02:52:38.283Z,87.77
2022-08-31T02:53:38.295Z,87.98
2022-08-31T02:54:38.924Z,88.18
2022-08-31T02:55:38.313Z,88.35
2022-08-31T02:56:38.287Z,88.35
2022-08-31T02:57:38.216Z,88.08
2022-08-31T02:58:38.217Z,87.98
2022-08-31T02:59:38.190Z,88.04
2022-08-31T03:00:38.204Z,88.24
2022-08-31T03:01:38.254Z,88.14
2022-08-31T03:02:38.288Z,87.84
2022-08-31T03:03:38.154Z,87.43
2022-08-31T03:04:38.204Z,87.18
2022-08-31T03:05:38.166Z,86.98
2022-08-31T03:06:38.155Z,87.23
2022-08-31T03:07:38.085Z,87.38
2022-08-31T03:08:38.099Z,87.49
2022-08-31T03:09:38.052Z,87.38
2022-08-31T03:10:38.056Z,87.29
2022-08-31T03:11:38.093Z,87.18
2022-08-31T03:12:38.033Z,87.18
2022-08-31T03:13:38.019Z,87.18
2022-08-31T03:14:38.009Z,87.29
2022-08-31T03:15:38.033Z,87.59
2022-08-31T03:16:37.976Z,87.70
2022-08-31T03:17:38.240Z,87.59
2022-08-31T03:18:37.940Z,87.38
2022-08-31T03:19:37.922Z,87.43
2022-08-31T03:20:37.919Z,87.63
2022-08-31T03:21:37.951Z,87.73
2022-08-31T03:22:37.896Z,87.84
2022-08-31T03:23:37.923Z,87.84
2022-08-31T03:24:37.859Z,87.84
2022-08-31T03:25:39.817Z,87.94
2022-08-31T03:26:37.840Z,88.24
2022-08-31T03:27:37.856Z,88.45
2022-08-31T03:28:37.887Z,88.65
2022-08-31T03:29:37.816Z,88.70
2022-08-31T03:30:37.818Z,88.90
2022-08-31T03:31:37.816Z,89.00
2022-08-31T03:32:37.783Z,89.11
2022-08-31T03:33:37.742Z,89.20
2022-08-31T03:34:37.740Z,89.31
2022-08-31T03:35:37.723Z,89.35
2022-08-31T03:36:37.707Z,89.65
2022-08-31T03:37:37.765Z,89.97
2022-08-31T03:38:37.677Z,90.02
2022-08-31T03:39:37.686Z,90.23
2022-08-31T03:40:37.719Z,90.17
2022-08-31T03:41:37.690Z,90.17
2022-08-31T03:42:37.661Z,90.06
2022-08-31T03:43:37.632Z,89.97
2022-08-31T03:44:37.601Z,90.06
2022-08-31T03:45:37.606Z,89.97
2022-08-31T03:46:37.608Z,89.86
2022-08-31T03:47:42.737Z,89.65
2022-08-31T03:48:38.556Z,89.56
2022-08-31T03:49:37.541Z,89.56
2022-08-31T03:50:37.519Z,89.56
2022-08-31T03:51:37.576Z,89.56
2022-08-31T03:52:37.539Z,89.65
2022-08-31T03:53:37.482Z,89.65
2022-08-31T03:54:37.498Z,89.45
2022-08-31T03:55:37.464Z,89.45
2022-08-31T03:56:37.450Z,89.65
2022-08-31T03:57:37.439Z,89.76
2022-08-31T03:58:37.449Z,89.86
2022-08-31T03:59:37.456Z,89.97
2022-08-31T04:00:37.443Z,90.06
2022-08-31T04:01:37.447Z,90.27
2022-08-31T04:02:37.777Z,90.47
2022-08-31T04:03:37.395Z,90.78
2022-08-31T04:04:37.424Z,90.99
2022-08-31T04:05:37.335Z,91.19
2022-08-31T04:06:37.329Z,91.19
2022-08-31T04:07:42.629Z,91.19
2022-08-31T04:08:38.339Z,91.19
2022-08-31T04:09:37.289Z,91.19
2022-08-31T04:10:37.267Z,91.29
2022-08-31T04:11:45.363Z,91.39
2022-08-31T04:12:39.217Z,91.60
2022-08-31T04:13:37.278Z,91.60
2022-08-31T04:14:37.236Z,91.60
2022-08-31T04:15:37.296Z,91.74
2022-08-31T04:16:37.208Z,91.95
2022-08-31T04:17:37.231Z,92.15
2022-08-31T04:18:37.169Z,92.25
2022-08-31T04:19:37.158Z,92.36
2022-08-31T04:20:37.142Z,92.36
2022-08-31T04:21:37.180Z,92.15
2022-08-31T04:22:37.104Z,92.05
2022-08-31T04:23:37.110Z,91.95
2022-08-31T04:24:37.112Z,91.74
2022-08-31T04:25:37.079Z,91.44
2022-08-31T04:26:37.104Z,91.03
2022-08-31T04:27:37.081Z,90.82
2022-08-31T04:28:37.304Z,90.72
2022-08-31T04:29:37.030Z,90.72
2022-08-31T04:30:37.151Z,90.72
2022-08-31T04:31:37.013Z,90.72
2022-08-31T04:32:36.986Z,90.62
2022-08-31T04:33:40.927Z,90.52
2022-08-31T04:34:36.973Z,90.56
2022-08-31T04:35:36.946Z,90.52
2022-08-31T04:36:36.948Z,90.56
2022-08-31T04:37:36.915Z,90.56
2022-08-31T04:38:37.623Z,90.41
2022-08-31T04:39:50.447Z,90.41
2022-08-31T04:40:37.915Z,90.41
2022-08-31T04:41:36.879Z,90.41
2022-08-31T04:42:36.843Z,90.52
2022-08-31T04:43:36.918Z,90.52
2022-08-31T04:44:36.885Z,90.52
2022-08-31T04:45:36.873Z,90.52
2022-08-31T04:46:39.509Z,90.52
2022-08-31T04:47:36.798Z,90.52
2022-08-31T04:48:36.774Z,90.45
2022-08-31T04:49:36.833Z,90.45
2022-08-31T04:50:41.864Z,90.56
2022-08-31T04:51:37.749Z,90.66
2022-08-31T04:52:36.728Z,90.66
2022-08-31T04:53:36.727Z,90.77
2022-08-31T04:54:37.664Z,90.97
2022-08-31T04:55:36.683Z,90.97
2022-08-31T04:56:36.689Z,90.97
2022-08-31T04:57:36.677Z,90.86
2022-08-31T04:58:36.677Z,90.72
2022-08-31T04:59:36.646Z,90.66
2022-08-31T05:00:36.704Z,90.62
2022-08-31T05:01:42.966Z,90.72
2022-08-31T05:02:37.913Z,90.72
2022-08-31T05:03:36.610Z,90.66
2022-08-31T05:04:36.924Z,90.62
2022-08-31T05:05:36.587Z,90.66
2022-08-31T05:06:36.590Z,90.72
2022-08-31T05:07:36.556Z,90.82
2022-08-31T05:08:36.533Z,90.92
2022-08-31T05:09:36.736Z,90.92
2022-08-31T05:10:36.512Z,90.82
2022-08-31T05:11:36.508Z,90.72
2022-08-31T05:12:40.259Z,90.62
2022-08-31T05:13:36.467Z,90.41
2022-08-31T05:14:37.162Z,90.52
2022-08-31T05:15:36.505Z,90.52
2022-08-31T05:16:36.469Z,90.52
2022-08-31T05:17:36.396Z,90.52
2022-08-31T05:18:36.381Z,90.52
2022-08-31T05:19:40.928Z,90.72
2022-08-31T05:20:40.259Z,90.92
2022-08-31T05:21:36.367Z,91.03
2022-08-31T05:22:40.068Z,90.99
2022-08-31T05:23:36.340Z,90.99
2022-08-31T05:24:36.572Z,91.13
2022-08-31T05:25:36.303Z,91.23
2022-08-31T05:26:36.315Z,91.29
2022-08-31T05:27:36.282Z,91.39
2022-08-31T05:28:36.311Z,91.50
2022-08-31T05:29:36.300Z,91.60
2022-08-31T05:30:36.345Z,91.70
2022-08-31T05:31:36.266Z,91.76
2022-08-31T05:32:37.778Z,91.86
2022-08-31T05:33:36.195Z,91.76
2022-08-31T05:34:36.355Z,91.76
2022-08-31T05:35:36.206Z,91.76
2022-08-31T05:36:36.176Z,91.76
2022-08-31T05:37:36.165Z,91.61
2022-08-31T05:38:36.152Z,91.61
2022-08-31T05:39:36.159Z,91.52
2022-08-31T05:40:36.210Z,91.41
2022-08-31T05:41:36.198Z,91.41
2022-08-31T05:42:36.132Z,91.31
2022-08-31T05:43:36.102Z,91.31
2022-08-31T05:44:36.057Z,91.31
2022-08-31T05:45:36.167Z,91.41
2022-08-31T05:46:36.123Z,91.37
2022-08-31T05:47:36.035Z,91.27
2022-08-31T05:48:36.005Z,91.27
2022-08-31T05:49:36.042Z,91.16
2022-08-31T05:50:35.981Z,91.06
2022-08-31T05:51:38.429Z,90.92
2022-08-31T05:52:35.974Z,90.81
2022-08-31T05:53:39.927Z,90.81
2022-08-31T05:54:35.944Z,90.71
2022-08-31T05:55:35.917Z,90.57
2022-08-31T05:56:35.926Z,90.57
2022-08-31T05:57:35.903Z,90.47
2022-08-31T05:58:35.915Z,90.36
2022-08-31T05:59:35.879Z,90.26
2022-08-31T06:00:35.854Z,90.06
2022-08-31T06:01:35.921Z,89.86
2022-08-31T06:02:35.814Z,89.75
2022-08-31T06:03:35.818Z,89.71
2022-08-31T06:04:35.820Z,89.71
2022-08-31T06:05:35.873Z,89.71
2022-08-31T06:06:35.776Z,89.71
2022-08-31T06:07:35.754Z,89.61
2022-08-31T06:08:35.761Z,89.61
2022-08-31T06:09:35.734Z,89.57
2022-08-31T06:10:35.723Z,89.57
2022-08-31T06:11:35.756Z,89.47
2022-08-31T06:12:35.700Z,89.47
2022-08-31T06:13:35.677Z,89.32
2022-08-31T06:14:36.439Z,89.12
2022-08-31T06:15:35.668Z,89.01
2022-08-31T06:16:36.736Z,88.98
2022-08-31T06:17:36.296Z,88.87
2022-08-31T06:18:35.612Z,88.57
2022-08-31T06:19:35.606Z,88.46
2022-08-31T06:20:35.650Z,88.16
2022-08-31T06:21:35.584Z,87.92
2022-08-31T06:22:35.572Z,87.61
2022-08-31T06:23:35.563Z,87.51
2022-08-31T06:24:35.554Z,87.20
2022-08-31T06:25:35.685Z,87.06
2022-08-31T06:26:35.572Z,86.96
2022-08-31T06:27:35.519Z,86.86
2022-08-31T06:28:39.363Z,86.76
2022-08-31T06:29:35.486Z,86.65
2022-08-31T06:30:41.131Z,86.65
2022-08-31T06:31:36.531Z,86.51
2022-08-31T06:32:35.448Z,86.41
2022-08-31T06:33:35.750Z,86.31
2022-08-31T06:34:35.747Z,86.21
2022-08-31T06:35:35.406Z,86.10
2022-08-31T06:36:35.399Z,85.96
2022-08-31T06:37:35.518Z,85.96
2022-08-31T06:38:35.377Z,85.86
2022-08-31T06:39:35.349Z,85.76
2022-08-31T06:40:35.586Z,85.46
2022-08-31T06:41:39.139Z,85.31
2022-08-31T06:42:35.298Z,85.21
2022-08-31T06:43:35.300Z,85.11
2022-08-31T06:44:35.334Z,85.11
2022-08-31T06:45:35.291Z,84.87
2022-08-31T06:46:35.292Z,84.66
2022-08-31T06:47:35.244Z,84.46
2022-08-31T06:48:35.228Z,84.16
2022-08-31T06:49:35.209Z,84.16
2022-08-31T06:50:35.224Z,84.01
2022-08-31T06:51:35.320Z,83.91
2022-08-31T06:52:38.798Z,83.81
2022-08-31T06:53:35.409Z,83.71
2022-08-31T06:54:35.136Z,83.40
2022-08-31T06:55:35.141Z,83.51
2022-08-31T06:56:35.127Z,83.26
2022-08-31T06:57:35.582Z,83.17
2022-08-31T06:58:35.149Z,83.26
2022-08-31T06:59:35.763Z,83.26
2022-08-31T07:00:35.113Z,83.17
2022-08-31T07:01:36.290Z,82.86
2022-08-31T07:02:35.122Z,82.62
2022-08-31T07:03:35.077Z,82.11
2022-08-31T07:04:35.015Z,81.81
2022-08-31T07:05:35.247Z,81.81
2022-08-31T07:06:34.987Z,81.71
2022-08-31T07:07:34.992Z,81.91
2022-08-31T07:08:34.954Z,81.46
2022-08-31T07:09:34.973Z,81.46
2022-08-31T07:10:35.267Z,81.37
2022-08-31T07:11:34.954Z,81.46
2022-08-31T07:12:34.912Z,81.46
2022-08-31T07:13:34.974Z,81.06
2022-08-31T07:14:34.872Z,80.72
2022-08-31T07:15:35.561Z,80.82
2022-08-31T07:16:34.937Z,80.11
2022-08-31T07:17:34.845Z,80.01
2022-08-31T07:18:34.855Z,79.80
2022-08-31T07:19:34.835Z,79.80
2022-08-31T07:20:34.796Z,79.87
2022-08-31T07:21:34.806Z,79.67
2022-08-31T07:22:34.770Z,79.57
2022-08-31T07:23:34.761Z,79.26
2022-08-31T07:24:34.757Z,78.82
2022-08-31T07:25:34.740Z,78.52
2022-08-31T07:26:36.539Z,78.52
2022-08-31T07:27:34.719Z,78.42
2022-08-31T07:28:38.470Z,78.11
2022-08-31T07:29:34.700Z,78.17
2022-08-31T07:30:34.773Z,78.48
2022-08-31T07:31:34.678Z,78.58
2022-08-31T07:32:34.651Z,78.17
2022-08-31T07:33:34.641Z,78.04
2022-08-31T07:34:34.613Z,77.94
2022-08-31T07:35:34.614Z,78.04
2022-08-31T07:36:34.639Z,77.73
2022-08-31T07:37:34.617Z,77.70
2022-08-31T07:38:38.413Z,77.39
2022-08-31T07:40:08.441Z,77.29
2022-08-31T07:40:55.714Z,76.15
2022-08-31T07:41:34.825Z,77.06
2022-08-31T07:42:38.412Z,76.31
2022-08-31T07:43:40.629Z,76.21
2022-08-31T07:44:52.894Z,75.91
2022-08-31T07:45:37.806Z,75.51
2022-08-31T07:46:34.554Z,75.51
2022-08-31T07:47:34.467Z,75.60
2022-08-31T07:48:34.451Z,75.47
2022-08-31T07:49:34.421Z,75.87
2022-08-31T07:50:35.099Z,75.23
2022-08-31T07:51:34.400Z,75.74
2022-08-31T07:52:34.638Z,75.43
2022-08-31T07:53:34.377Z,75.54
2022-08-31T07:54:35.167Z,75.40
2022-08-31T07:55:34.373Z,75.10
2022-08-31T07:56:35.166Z,74.59
2022-08-31T07:57:34.362Z,75.40
2022-08-31T07:58:58.097Z,75.26
2022-08-31T07:59:34.312Z,74.76
2022-08-31T08:00:39.492Z,74.15
2022-08-31T08:01:36.300Z,73.95
2022-08-31T08:02:52.948Z,74.05
2022-08-31T08:03:37.334Z,73.85
2022-08-31T08:04:46.540Z,74.05
2022-08-31T08:05:35.446Z,74.15
2022-08-31T08:06:34.304Z,74.46
2022-08-31T08:07:38.314Z,73.75
2022-08-31T08:08:50.461Z,74.35
2022-08-31T08:09:37.873Z,74.35
2022-08-31T08:10:34.193Z,74.26
2022-08-31T08:11:34.182Z,74.35
2022-08-31T08:12:34.179Z,74.35
2022-08-31T08:13:34.126Z,75.06
2022-08-31T08:14:34.097Z,75.02
2022-08-31T08:15:35.725Z,74.62
2022-08-31T08:16:34.153Z,74.52
2022-08-31T08:17:34.358Z,74.62
2022-08-31T08:18:34.050Z,73.68
2022-08-31T08:19:37.928Z,73.58
2022-08-31T08:20:37.756Z,73.48
2022-08-31T08:21:34.069Z,72.84
2022-08-31T08:22:51.876Z,72.34
2022-08-31T08:23:34.993Z,72.34
2022-08-31T08:24:33.986Z,72.03
2022-08-31T08:25:33.980Z,71.73
2022-08-31T08:26:33.983Z,72.24
2022-08-31T08:27:33.935Z,71.70
2022-08-31T08:28:41.434Z,71.80
2022-08-31T08:29:34.986Z,71.30
2022-08-31T08:30:33.907Z,71.67
2022-08-31T08:31:33.920Z,70.16
2022-08-31T08:32:33.864Z,70.36
2022-08-31T08:33:33.854Z,70.12
2022-08-31T08:34:33.862Z,69.62
2022-08-31T08:35:33.860Z,69.49
2022-08-31T08:36:33.797Z,69.29
2022-08-31T08:37:54.744Z,68.49
2022-08-31T08:38:34.781Z,68.76
2022-08-31T08:39:33.779Z,68.55
2022-08-31T08:40:33.978Z,68.02
2022-08-31T08:41:34.441Z,67.52
2022-08-31T08:42:37.508Z,66.75
2022-08-31T08:43:33.745Z,67.85
2022-08-31T08:44:33.761Z,68.25
2022-08-31T08:45:33.755Z,67.61
2022-08-31T08:46:35.671Z,66.08
2022-08-31T08:47:37.537Z,66.41
2022-08-31T08:48:33.651Z,66.82
2022-08-31T08:49:33.680Z,67.11
2022-08-31T08:50:33.653Z,67.11
2022-08-31T08:51:33.646Z,67.02
2022-08-31T08:52:33.973Z,66.52
2022-08-31T08:53:34.501Z,66.78
2022-08-31T08:54:33.570Z,66.28
2022-08-31T08:55:33.825Z,66.05
2022-08-31T08:56:34.332Z,65.95
2022-08-31T08:57:33.809Z,65.31
2022-08-31T08:58:33.542Z,64.62
2022-08-31T08:59:33.539Z,64.89
2022-08-31T09:00:33.603Z,64.59
2022-08-31T09:01:33.623Z,63.25
2022-08-31T09:02:33.568Z,62.45
2022-08-31T09:03:36.252Z,62.28
2022-08-31T09:04:38.563Z,62.65
2022-08-31T09:05:34.218Z,61.82
2022-08-31T09:06:52.270Z,60.22
2022-08-31T09:07:35.319Z,60.92
2022-08-31T09:08:33.965Z,60.99
2022-08-31T09:09:33.385Z,60.99
2022-08-31T09:10:33.394Z,60.29
2022-08-31T09:11:33.394Z,60.49
2022-08-31T09:12:34.118Z,60.16
2022-08-31T09:13:33.326Z,59.23
2022-08-31T09:14:33.334Z,59.31
2022-08-31T09:15:33.303Z,58.31
2022-08-31T09:16:33.338Z,58.17
2022-08-31T09:17:33.310Z,59.79
2022-08-31T09:18:34.065Z,60.42
2022-08-31T09:19:33.261Z,61.15
2022-08-31T09:20:33.258Z,61.38
2022-08-31T09:21:33.226Z,61.21
2022-08-31T09:22:33.216Z,62.71
2022-08-31T09:23:33.209Z,61.68
2022-08-31T09:24:33.196Z,62.22
2022-08-31T09:26:52.773Z,58.59
2022-08-31T09:28:21.311Z,57.62
2022-08-31T09:28:48.581Z,56.70
2022-08-31T09:29:48.411Z,57.12
2022-08-31T09:30:48.608Z,56.85
2022-08-31T09:31:48.393Z,58.25
2022-08-31T09:32:48.404Z,57.68
2022-08-31T09:33:48.405Z,58.40
2022-08-31T09:34:48.329Z,60.14
2022-08-31T09:35:48.326Z,59.66
2022-08-31T09:36:48.323Z,60.84
2022-08-31T09:37:48.300Z,60.84
2022-08-31T09:38:48.269Z,61.54
2022-08-31T09:39:52.027Z,62.18
2022-08-31T09:40:48.627Z,60.05
2022-08-31T09:41:48.404Z,59.72
2022-08-31T09:42:48.237Z,58.52
2022-08-31T09:43:48.216Z,55.72
2022-08-31T09:44:48.203Z,56.32
2022-08-31T09:45:48.224Z,54.74
2022-08-31T09:46:48.165Z,55.27
2022-08-31T09:47:51.010Z,55.90
2022-08-31T09:48:48.144Z,55.10
2022-08-31T09:49:48.153Z,56.48
2022-08-31T09:50:48.113Z,56.24
2022-08-31T09:51:48.098Z,55.82
2022-08-31T09:52:48.155Z,54.10
2022-08-31T09:53:48.075Z,53.07
2022-08-31T09:54:48.070Z,53.64
2022-08-31T09:55:48.345Z,51.40
2022-08-31T09:56:48.049Z,51.67
2022-08-31T09:57:48.060Z,50.74
2022-08-31T09:58:48.028Z,50.35
2022-08-31T09:59:48.177Z,49.05
2022-08-31T10:00:47.987Z,52.92
2022-08-31T10:01:48.027Z,50.73
2022-08-31T10:02:48.204Z,49.23
2022-08-31T10:03:48.015Z,46.24
2022-08-31T10:04:47.980Z,48.43
2022-08-31T10:05:47.959Z,49.23
2022-08-31T10:06:47.932Z,47.66
2022-08-31T10:07:47.890Z,48.28
2022-08-31T10:08:48.592Z,50.10
2022-08-31T10:09:47.865Z,49.60
2022-08-31T10:10:47.900Z,48.80
2022-08-31T10:11:47.860Z,49.70
2022-08-31T10:12:47.835Z,50.32
2022-08-31T10:13:47.844Z,49.47
2022-08-31T10:14:47.810Z,53.09
2022-08-31T10:15:47.835Z,52.00
2022-08-31T10:16:47.775Z,52.74
2022-08-31T10:17:48.076Z,50.40
2022-08-31T10:18:48.277Z,48.88
2022-08-31T10:19:47.741Z,49.05
2022-08-31T10:20:47.736Z,47.60
2022-08-31T10:21:47.710Z,49.00
2022-08-31T10:22:48.027Z,48.90
2022-08-31T10:23:47.688Z,49.22
2022-08-31T10:24:47.694Z,50.00
2022-08-31T10:25:48.384Z,47.68
2022-08-31T10:26:47.665Z,48.25
2022-08-31T10:27:47.675Z,48.03
2022-08-31T10:28:47.628Z,46.12
2022-08-31T10:29:47.787Z,46.81
2022-08-31T10:30:47.657Z,47.41
2022-08-31T10:31:48.567Z,44.40
2022-08-31T10:32:47.605Z,44.80
2022-08-31T10:33:47.651Z,46.12
2022-08-31T10:34:47.609Z,43.27
2022-08-31T10:35:47.557Z,44.59
2022-08-31T10:36:47.553Z,45.61
2022-08-31T10:37:47.550Z,46.41
2022-08-31T10:38:47.518Z,47.90
2022-08-31T10:39:48.204Z,45.96
2022-08-31T10:40:49.411Z,46.64
2022-08-31T10:41:47.460Z,44.42
2022-08-31T10:42:47.482Z,44.42
2022-08-31T10:43:47.439Z,44.90
2022-08-31T10:44:47.655Z,44.70
2022-08-31T10:45:47.462Z,43.98
2022-08-31T10:46:47.497Z,46.47
2022-08-31T10:47:47.389Z,44.26
2022-08-31T10:48:47.432Z,42.07
2022-08-31T10:49:47.385Z,44.06
2022-08-31T10:50:47.612Z,42.39
2022-08-31T10:51:47.353Z,42.19
2022-08-31T10:52:47.340Z,43.38
2022-08-31T10:53:47.303Z,42.27
2022-08-31T10:54:47.324Z,41.28
2022-08-31T10:55:47.282Z,42.39
2022-08-31T10:56:47.306Z,43.16
2022-08-31T10:57:47.932Z,44.36
2022-08-31T10:58:47.268Z,43.05
2022-08-31T10:59:47.221Z,42.45
2022-08-31T11:00:47.406Z,43.84
2022-08-31T11:01:47.281Z,41.25
2022-08-31T11:02:47.194Z,42.67
2022-08-31T11:03:47.206Z,43.88
2022-08-31T11:04:47.237Z,43.03
2022-08-31T11:05:50.607Z,44.54
2022-08-31T11:06:47.138Z,44.09
2022-08-31T11:07:47.120Z,44.73
2022-08-31T11:08:47.122Z,45.43
2022-08-31T11:09:47.170Z,46.73
2022-08-31T11:10:47.115Z,46.11
2022-08-31T11:11:47.066Z,44.73
2022-08-31T11:12:47.060Z,45.13
2022-08-31T11:13:49.310Z,45.59
2022-08-31T11:14:47.045Z,44.79
2022-08-31T11:15:47.120Z,45.01
2022-08-31T11:16:47.002Z,45.53
2022-08-31T11:17:47.003Z,47.15
2022-08-31T11:18:50.965Z,47.25
2022-08-31T11:19:46.986Z,47.17
2022-08-31T11:20:47.049Z,48.07
2022-08-31T11:21:46.941Z,46.57
2022-08-31T11:22:46.927Z,47.77
2022-08-31T11:23:46.910Z,47.27
2022-08-31T11:24:46.930Z,47.57
2022-08-31T11:25:46.915Z,47.47
2022-08-31T11:26:46.876Z,47.39
2022-08-31T11:27:46.861Z,46.99
2022-08-31T11:28:46.879Z,47.49
2022-08-31T11:29:47.176Z,48.85
2022-08-31T11:30:50.882Z,46.20
2022-08-31T11:31:46.851Z,46.01
2022-08-31T11:32:46.804Z,44.99
2022-08-31T11:34:06.055Z,44.74
2022-08-31T11:34:47.803Z,43.43
2022-08-31T11:35:46.779Z,43.49
2022-08-31T11:36:46.756Z,43.86
2022-08-31T11:37:46.750Z,44.36
2022-08-31T11:38:46.754Z,42.85
2022-08-31T11:39:46.704Z,41.85
2022-08-31T11:40:46.791Z,41.58
2022-08-31T11:41:46.862Z,41.93
2022-08-31T11:42:46.671Z,44.67
2022-08-31T11:43:46.698Z,44.19
2022-08-31T11:44:46.648Z,44.38
2022-08-31T11:45:46.701Z,44.57
2022-08-31T11:46:46.686Z,45.52
2022-08-31T11:47:46.663Z,43.90
2022-08-31T11:49:09.494Z,43.88
2022-08-31T11:49:46.588Z,42.37
2022-08-31T11:50:46.665Z,41.87
2022-08-31T11:51:46.577Z,43.02
2022-08-31T11:52:46.562Z,41.02
2022-08-31T11:53:46.551Z,41.52
2022-08-31T11:54:46.527Z,39.15
2022-08-31T11:55:46.523Z,40.06
2022-08-31T11:56:46.514Z,41.14
2022-08-31T11:57:46.569Z,40.50
2022-08-31T11:59:08.260Z,38.81
2022-08-31T12:00:08.474Z,39.71
2022-08-31T12:00:46.452Z,40.50
2022-08-31T12:02:08.574Z,40.36
2022-08-31T12:02:46.479Z,40.05
2022-08-31T12:03:46.410Z,39.14
2022-08-31T12:04:46.424Z,39.34
2022-08-31T12:05:46.441Z,39.63
2022-08-31T12:06:46.406Z,40.12
2022-08-31T12:07:46.366Z,39.37
2022-08-31T12:08:46.375Z,39.89
2022-08-31T12:09:50.141Z,40.80
2022-08-31T12:10:46.328Z,39.69
2022-08-31T12:11:46.318Z,39.06
2022-08-31T12:12:46.293Z,38.85
2022-08-31T12:13:46.323Z,39.63
2022-08-31T12:14:46.316Z,38.92
2022-08-31T12:15:46.307Z,38.11
2022-08-31T12:16:46.245Z,37.89
2022-08-31T12:17:46.276Z,39.59
2022-08-31T12:18:46.232Z,38.31
2022-08-31T12:19:46.863Z,38.60
2022-08-31T12:20:46.217Z,38.74
2022-08-31T12:21:46.184Z,39.25
2022-08-31T12:22:48.927Z,39.87
2022-08-31T12:23:46.160Z,40.48
2022-08-31T12:24:49.354Z,40.03
2022-08-31T12:25:46.140Z,41.08
2022-08-31T12:26:46.411Z,42.99
2022-08-31T12:27:46.106Z,42.19
2022-08-31T12:28:46.094Z,43.08
2022-08-31T12:29:46.118Z,43.90
2022-08-31T12:30:46.142Z,42.93
2022-08-31T12:31:46.062Z,42.75
2022-08-31T12:32:46.350Z,44.57
2022-08-31T12:33:46.047Z,44.19
2022-08-31T12:34:46.036Z,44.69
2022-08-31T12:35:46.059Z,44.69
2022-08-31T12:36:46.002Z,45.10
2022-08-31T12:37:46.012Z,44.71
2022-08-31T12:38:46.071Z,44.29
2022-08-31T12:39:45.963Z,43.09
2022-08-31T12:40:46.028Z,43.31
2022-08-31T12:41:49.894Z,42.73
2022-08-31T12:42:46.256Z,42.27
2022-08-31T12:43:45.944Z,41.09
2022-08-31T12:44:47.638Z,39.28
2022-08-31T12:45:45.902Z,38.05
2022-08-31T12:46:46.694Z,37.45
2022-08-31T12:47:45.868Z,38.84
2022-08-31T12:48:45.911Z,38.11
2022-08-31T12:49:46.606Z,37.48
2022-08-31T12:50:46.164Z,36.88
2022-08-31T12:51:46.218Z,37.70
2022-08-31T12:52:45.812Z,35.80
2022-08-31T12:53:46.419Z,36.19